Corneil Estates, New York
Current Conditions -  °F | °C
As of 8:56 PM on Saturday 25 Oct 2014 (Local Time) from KISP Reporting Station
Scattered Clouds Scattered Clouds  
Wind Chill: 59°   Ceiling: Unl
Heat Index: 59°   Visibility: 10mi
Dew Point: 48°   Wind: 10mph
Humidity: 67%   Direction: 220°SW
Pressure: 29.61"   Gusts: NA
Location:  40.6448°N, 73.1603°W
Report Text: KISP 260056Z 22009KT 10SM SCT260 15/09 A2961 RMK AO2 SLP027 T01500089
Loading
Personal Weather Stations






























Interactive Weather Map
Tropical Storm Tracking
New forecast layout! Learn more

10-Day Weather Forecast

Advertisements
Track Severe Weather on mobile